Terminal Aerodrome Forecast
Issued by NWS

Home | Current Version | Previous Version | Text Only | Print | Product List | Glossary On
Versions: 1 2 3 4 5 6 7 8 9 10 11 12 13 14 15 16 17 18 19 20 21 22 23 24 25 26 27
371
FTUS44 KSJT 182039 AAA
TAFJCT
TAF AMD
KJCT 182039Z 1821/1918 VRB03KT P6SM SCT007 OVC015
     FM190300 00000KT 2SM BR OVC003
     FM190600 00000KT 1/2SM FG OVC002
     FM191100 VRB03KT 2SM -SHRA BR OVC007=

USA.gov is the U.S. government's official web portal to all federal, state and local government web resources and services.